Time;durP1;ratioP1;P1;durP2;ratioP2;P2;SDS_P1;SDS_P2;PMS_P1;PMS_P2;Temp;Humidity;BMP_temperature;BMP_pressure;BME280_temperature;BME280_humidity;BME280_pressure;Samples;Min_cycle;Max_cycle;Signal;HPM_P1;HPM_P2
2022/09/14 00:00:29;;;;;;;3.80;2.47;;;18.50;80.10;;;;;;5037492;28;20052;-76
2022/09/14 00:02:55;;;;;;;2.88;2.58;;;18.50;80.10;;;;;;5036011;28;20037;-76
2022/09/14 00:05:20;;;;;;;3.13;2.30;;;18.50;80.20;;;;;;5054277;28;20548;-76
2022/09/14 00:07:46;;;;;;;4.50;2.35;;;18.50;80.20;;;;;;5052325;28;20563;-77
2022/09/14 00:10:11;;;;;;;2.78;2.10;;;18.50;80.20;;;;;;5053478;28;20781;-77
2022/09/14 00:12:37;;;;;;;3.25;2.60;;;18.50;80.30;;;;;;5066391;28;20032;-76
2022/09/14 00:15:03;;;;;;;3.28;2.30;;;18.50;80.40;;;;;;5035919;28;20032;-78
2022/09/14 00:17:28;;;;;;;2.60;2.35;;;18.50;80.40;;;;;;5056616;28;20123;-76
2022/09/14 00:19:54;;;;;;;3.63;2.38;;;18.50;80.50;;;;;;5038254;28;20155;-78
2022/09/14 00:22:20;;;;;;;3.45;2.40;;;18.50;80.50;;;;;;5052407;28;20036;-77
2022/09/14 00:24:45;;;;;;;5.32;2.40;;;18.40;80.50;;;;;;5059798;28;20686;-76
2022/09/14 00:27:11;;;;;;;5.57;2.47;;;18.50;80.60;;;;;;5037205;28;20656;-76
2022/09/14 00:29:36;;;;;;;3.42;2.40;;;18.50;80.70;;;;;;5032962;28;20826;-76
2022/09/14 00:32:02;;;;;;;3.50;3.08;;;18.50;80.70;;;;;;5041164;28;20496;-76
2022/09/14 00:34:27;;;;;;;2.63;2.38;;;18.40;80.70;;;;;;5072191;28;20547;-78
2022/09/14 00:36:53;;;;;;;3.65;2.38;;;18.40;80.80;;;;;;5025085;28;20051;-75
2022/09/14 00:39:22;;;;;;;3.88;2.70;;;18.40;80.70;;;;;;5050945;28;20032;-75
2022/09/14 00:41:48;;;;;;;2.75;2.55;;;18.40;80.90;;;;;;5041370;28;20028;-77
2022/09/14 00:44:13;;;;;;;3.15;2.55;;;18.40;80.90;;;;;;5047288;28;20044;-76
2022/09/14 00:46:43;;;;;;;2.70;2.50;;;18.40;81.10;;;;;;5063765;28;20036;-76
2022/09/14 00:49:14;;;;;;;6.13;2.88;;;18.40;81.20;;;;;;5037938;28;20040;-77
2022/09/14 00:51:49;;;;;;;4.45;2.42;;;18.40;81.10;;;;;;5055279;28;20532;-77
2022/09/14 00:54:14;;;;;;;5.93;2.75;;;18.40;81.20;;;;;;5060770;28;20350;-76
2022/09/14 00:56:40;;;;;;;4.85;2.58;;;18.40;81.20;;;;;;5040356;28;20122;-76
2022/09/14 00:59:17;;;;;;;2.55;2.30;;;18.40;81.30;;;;;;5038860;28;20086;-77
2022/09/14 01:01:43;;;;;;;3.22;2.67;;;18.40;81.40;;;;;;5055371;28;20210;-76
2022/09/14 01:04:08;;;;;;;4.47;2.58;;;18.40;81.40;;;;;;5037634;28;20028;-76
2022/09/14 01:06:38;;;;;;;3.50;2.70;;;18.30;81.40;;;;;;5036570;28;20048;-78
2022/09/14 01:09:12;;;;;;;2.65;2.45;;;18.30;81.40;;;;;;5054450;28;20055;-77
2022/09/14 01:11:52;;;;;;;3.95;2.75;;;18.30;81.60;;;;;;5069796;28;20040;-76
2022/09/14 01:14:48;;;;;;;4.25;2.53;;;18.30;81.90;;;;;;5055459;28;20043;-78
2022/09/14 01:17:37;;;;;;;3.22;2.63;;;18.30;82.00;;;;;;5038406;28;20044;-76
2022/09/14 01:20:18;;;;;;;3.83;2.75;;;18.30;82.00;;;;;;5043638;28;20028;-76
2022/09/14 01:22:49;;;;;;;3.22;2.92;;;18.30;81.80;;;;;;5054911;28;20020;-76
2022/09/14 01:25:27;;;;;;;9.13;2.80;;;18.30;81.80;;;;;;5053102;28;20071;-76
2022/09/14 01:27:54;;;;;;;5.00;2.55;;;18.30;81.80;;;;;;5056348;28;20060;-76
2022/09/14 01:30:21;;;;;;;7.18;2.97;;;18.30;81.80;;;;;;5058375;28;20039;-77
2022/09/14 01:32:52;;;;;;;6.43;3.40;;;18.30;81.80;;;;;;5059300;28;20048;-76
2022/09/14 01:35:28;;;;;;;9.40;3.20;;;18.30;81.80;;;;;;5067789;28;20051;-76
2022/09/14 01:38:01;;;;;;;4.63;3.25;;;18.30;81.80;;;;;;5053532;28;20331;-76
2022/09/14 01:40:34;;;;;;;8.20;3.83;;;18.30;82.10;;;;;;5039396;28;20032;-76
2022/09/14 01:43:32;;;;;;;7.22;4.07;;;18.30;82.10;;;;;;5045850;28;20546;-77
2022/09/14 01:46:02;;;;;;;4.60;3.65;;;18.30;82.40;;;;;;5060047;28;20036;-76
2022/09/14 01:48:36;;;;;;;8.35;3.88;;;18.30;82.00;;;;;;5037311;28;20900;-76
2022/09/14 01:51:03;;;;;;;4.40;3.67;;;18.30;82.30;;;;;;5036992;28;20039;-75
2022/09/14 01:53:36;;;;;;;5.05;3.88;;;18.30;82.20;;;;;;5039626;28;20390;-75
2022/09/14 01:56:22;;;;;;;6.22;3.38;;;18.30;82.40;;;;;;5031705;28;20036;-76
2022/09/14 01:58:54;;;;;;;4.03;3.33;;;18.30;82.70;;;;;;5055203;28;20040;-76
2022/09/14 02:01:23;;;;;;;4.05;2.90;;;18.30;82.40;;;;;;5041447;28;20065;-76
2022/09/14 02:03:54;;;;;;;5.32;3.45;;;18.30;82.40;;;;;;5065726;28;20491;-77
2022/09/14 02:06:33;;;;;;;4.63;2.90;;;18.30;82.50;;;;;;5035506;28;20060;-75
2022/09/14 02:08:59;;;;;;;4.03;3.33;;;18.30;82.50;;;;;;5060115;28;20639;-76
2022/09/14 02:11:24;;;;;;;5.85;3.55;;;18.30;82.50;;;;;;5033308;28;20032;-77
2022/09/14 02:13:50;;;;;;;3.58;2.67;;;18.30;82.60;;;;;;5036580;28;20086;-76
2022/09/14 02:16:15;;;;;;;5.28;2.97;;;18.30;82.90;;;;;;5050199;28;20082;-75
2022/09/14 02:18:42;;;;;;;4.50;3.45;;;18.30;82.90;;;;;;5051561;28;20036;-75
2022/09/14 02:21:16;;;;;;;5.90;2.97;;;18.30;82.90;;;;;;5051900;28;20036;-75
2022/09/14 02:23:41;;;;;;;6.97;3.30;;;18.30;83.10;;;;;;5050890;28;20044;-76
2022/09/14 02:26:07;;;;;;;4.82;3.30;;;18.30;83.00;;;;;;5032101;28;20032;-76
2022/09/14 02:28:32;;;;;;;9.52;3.40;;;18.30;83.00;;;;;;5066683;28;20036;-76
2022/09/14 02:31:04;;;;;;;4.55;3.10;;;18.20;83.00;;;;;;5052086;28;20707;-76
2022/09/14 02:34:01;;;;;;;4.93;3.05;;;18.20;83.00;;;;;;5056624;28;20120;-76
2022/09/14 02:36:26;;;;;;;7.80;3.95;;;18.30;83.10;;;;;;5040007;28;20553;-76
2022/09/14 02:39:01;;;;;;;4.38;3.05;;;18.30;83.00;;;;;;5067554;28;20036;-76
2022/09/14 02:41:47;;;;;;;4.85;3.15;;;18.20;83.20;;;;;;5034729;28;20051;-76
2022/09/14 02:44:44;;;;;;;5.07;3.05;;;18.30;83.40;;;;;;5031882;28;20080;-76
2022/09/14 02:47:24;;;;;;;4.20;3.35;;;18.30;83.50;;;;;;5069220;28;20093;-78
2022/09/14 02:50:06;;;;;;;3.47;3.17;;;18.30;83.30;;;;;;5068978;28;20033;-78
2022/09/14 02:52:34;;;;;;;4.68;3.20;;;18.30;83.10;;;;;;5041075;28;20037;-77
2022/09/14 02:55:11;;;;;;;8.02;2.97;;;18.30;83.10;;;;;;5014792;28;20040;-76
2022/09/14 02:57:57;;;;;;;4.95;3.20;;;18.30;83.40;;;;;;5062212;28;20033;-77
2022/09/14 03:00:23;;;;;;;3.28;2.90;;;18.30;83.60;;;;;;5079167;28;20062;-77
2022/09/14 03:02:49;;;;;;;4.15;3.22;;;18.30;83.30;;;;;;5041847;28;20028;-77
2022/09/14 03:05:14;;;;;;;4.13;2.80;;;18.30;83.40;;;;;;5089476;28;20045;-78
2022/09/14 03:07:40;;;;;;;5.78;3.65;;;18.30;83.40;;;;;;5070174;28;20040;-77
2022/09/14 03:10:06;;;;;;;4.13;3.10;;;18.20;83.40;;;;;;5053297;28;20028;-78
2022/09/14 03:12:31;;;;;;;3.55;3.25;;;18.30;83.50;;;;;;5056760;28;20043;-78
2022/09/14 03:14:57;;;;;;;3.70;3.22;;;18.20;83.50;;;;;;5077622;28;20040;-78
2022/09/14 03:17:22;;;;;;;4.65;3.17;;;18.20;83.50;;;;;;5059902;28;20043;-77
2022/09/14 03:19:48;;;;;;;4.55;3.30;;;18.20;83.60;;;;;;5073509;28;20032;-79
2022/09/14 03:22:14;;;;;;;2.85;2.65;;;18.30;83.60;;;;;;5039424;28;20167;-77
2022/09/14 03:24:39;;;;;;;3.20;2.90;;;18.20;83.70;;;;;;5071968;28;20123;-78
2022/09/14 03:27:05;;;;;;;4.30;3.38;;;18.30;83.70;;;;;;5066387;28;20527;-78
2022/09/14 03:29:30;;;;;;;7.28;3.30;;;18.20;83.70;;;;;;5056417;28;20024;-78
2022/09/14 03:31:56;;;;;;;4.28;3.17;;;18.20;83.70;;;;;;5057914;28;20024;-78
2022/09/14 03:34:22;;;;;;;4.78;3.45;;;18.20;83.80;;;;;;5049582;28;20436;-77
2022/09/14 03:36:47;;;;;;;7.18;3.88;;;18.20;83.80;;;;;;5085777;28;20135;-76
2022/09/14 03:39:13;;;;;;;3.40;3.10;;;18.20;83.80;;;;;;5035636;28;20068;-77
2022/09/14 03:41:38;;;;;;;6.05;3.70;;;18.20;83.90;;;;;;5070187;28;20120;-76
2022/09/14 03:44:04;;;;;;;4.22;3.83;;;18.20;84.00;;;;;;5035713;28;20048;-77
2022/09/14 03:46:29;;;;;;;6.82;3.80;;;18.20;84.00;;;;;;5069158;28;20032;-77
2022/09/14 03:48:55;;;;;;;5.65;3.92;;;18.20;84.00;;;;;;5041437;28;20072;-77
2022/09/14 03:51:20;;;;;;;3.97;3.50;;;18.20;84.00;;;;;;5050620;28;20055;-77
2022/09/14 03:53:46;;;;;;;5.35;4.20;;;18.20;84.10;;;;;;5071028;28;20036;-76
2022/09/14 03:56:18;;;;;;;8.30;4.18;;;18.20;84.10;;;;;;5065181;28;20044;-76
2022/09/14 03:58:44;;;;;;;5.70;3.63;;;18.20;84.10;;;;;;5041686;28;20036;-75
2022/09/14 04:01:13;;;;;;;4.53;3.60;;;18.20;84.10;;;;;;5036323;28;20029;-75
2022/09/14 04:03:38;;;;;;;4.00;3.60;;;18.20;84.10;;;;;;5035138;28;20040;-78
2022/09/14 04:06:04;;;;;;;4.93;3.72;;;18.30;84.20;;;;;;5046041;28;21268;-76
2022/09/14 04:08:32;;;;;;;3.80;3.40;;;18.20;84.10;;;;;;5042607;28;20095;-77
2022/09/14 04:10:57;;;;;;;7.05;3.63;;;18.20;84.20;;;;;;5036720;28;20562;-77
2022/09/14 04:13:23;;;;;;;4.50;3.85;;;18.30;84.20;;;;;;5063322;28;20126;-75
2022/09/14 04:15:58;;;;;;;7.75;4.18;;;18.20;84.20;;;;;;5043366;28;20043;-77
2022/09/14 04:18:24;;;;;;;4.72;3.55;;;18.20;84.40;;;;;;5045725;28;20044;-77
2022/09/14 04:20:57;;;;;;;11.65;3.65;;;18.20;84.30;;;;;;5036305;28;20040;-77
2022/09/14 04:23:22;;;;;;;3.72;3.33;;;18.20;84.30;;;;;;5036935;28;20132;-76
2022/09/14 04:25:48;;;;;;;6.30;3.90;;;18.30;84.50;;;;;;5056989;28;20123;-77
2022/09/14 04:28:29;;;;;;;4.22;3.83;;;18.20;84.30;;;;;;5041232;28;20113;-76
2022/09/14 04:30:58;;;;;;;4.63;3.38;;;18.20;84.70;;;;;;5028662;28;23161;-76
2022/09/14 04:33:24;;;;;;;3.42;3.13;;;18.20;84.40;;;;;;5037877;28;20037;-76
2022/09/14 04:36:00;;;;;;;3.08;2.78;;;18.20;84.60;;;;;;5047699;28;20100;-77
2022/09/14 04:38:26;;;;;;;3.72;3.10;;;18.20;84.70;;;;;;5044466;28;20036;-76
2022/09/14 04:40:51;;;;;;;3.53;2.92;;;18.20;84.50;;;;;;5060274;28;20155;-76
2022/09/14 04:43:17;;;;;;;5.32;3.17;;;18.20;84.60;;;;;;5039760;28;20532;-78
2022/09/14 04:45:43;;;;;;;4.13;3.15;;;18.20;84.60;;;;;;5053423;28;20131;-77
2022/09/14 04:48:08;;;;;;;3.25;2.92;;;18.20;84.50;;;;;;5057020;28;20036;-77
2022/09/14 04:50:34;;;;;;;6.55;2.85;;;18.20;84.60;;;;;;5054517;28;20084;-76
2022/09/14 04:53:00;;;;;;;3.25;2.95;;;18.20;84.60;;;;;;5041758;28;20040;-76
2022/09/14 04:55:26;;;;;;;3.80;3.50;;;18.20;84.90;;;;;;5066037;28;20514;-76
2022/09/14 04:57:52;;;;;;;4.53;2.95;;;18.20;84.70;;;;;;5034819;28;20028;-77
2022/09/14 05:00:17;;;;;;;4.20;3.08;;;18.20;84.80;;;;;;5051225;28;20036;-77
2022/09/14 05:02:43;;;;;;;4.25;2.90;;;18.20;84.70;;;;;;5052297;28;20093;-78
2022/09/14 05:05:09;;;;;;;3.97;3.42;;;18.20;84.70;;;;;;5042541;28;20028;-77
2022/09/14 05:07:34;;;;;;;7.30;3.72;;;18.20;84.70;;;;;;5045316;28;20036;-76
2022/09/14 05:10:00;;;;;;;4.60;3.03;;;18.20;84.80;;;;;;5058340;28;20381;-77
2022/09/14 05:12:25;;;;;;;3.20;2.90;;;18.20;84.80;;;;;;5069396;28;20040;-77
2022/09/14 05:14:51;;;;;;;3.53;3.17;;;18.20;84.80;;;;;;5047148;28;20039;-77
2022/09/14 05:17:16;;;;;;;3.13;2.53;;;18.20;84.80;;;;;;5049603;28;20040;-76
2022/09/14 05:19:42;;;;;;;3.33;2.90;;;18.20;84.80;;;;;;5053759;28;20047;-76
2022/09/14 05:22:07;;;;;;;7.10;3.83;;;18.20;84.80;;;;;;5054453;28;20377;-78
2022/09/14 05:24:33;;;;;;;4.13;3.05;;;18.20;84.80;;;;;;5037328;28;20043;-78
2022/09/14 05:26:58;;;;;;;4.72;2.97;;;18.20;84.90;;;;;;5054303;28;20028;-77
2022/09/14 05:29:24;;;;;;;4.60;2.95;;;18.20;84.90;;;;;;5032542;28;20024;-77
2022/09/14 05:31:50;;;;;;;4.63;3.40;;;18.20;84.90;;;;;;5036196;28;20361;-78
2022/09/14 05:34:16;;;;;;;5.10;3.38;;;18.20;85.00;;;;;;5048448;28;20032;-76
2022/09/14 05:36:41;;;;;;;4.10;3.05;;;18.20;85.10;;;;;;5052279;28;20044;-77
2022/09/14 05:39:07;;;;;;;3.90;3.38;;;18.20;85.10;;;;;;5036265;28;20040;-75
2022/09/14 05:41:32;;;;;;;4.82;3.30;;;18.20;85.10;;;;;;5050041;28;20033;-76
2022/09/14 05:43:58;;;;;;;3.03;2.75;;;18.20;85.10;;;;;;5038449;28;20063;-77
2022/09/14 05:46:24;;;;;;;6.22;2.70;;;18.20;85.10;;;;;;5050893;28;20039;-75
2022/09/14 05:48:50;;;;;;;3.30;2.65;;;18.20;85.20;;;;;;5049560;28;20120;-76
2022/09/14 05:51:20;;;;;;;4.07;3.10;;;18.20;85.30;;;;;;5033637;28;20036;-76
2022/09/14 05:53:49;;;;;;;2.95;2.65;;;18.20;85.20;;;;;;5032665;28;20036;-75
2022/09/14 05:56:15;;;;;;;3.95;2.75;;;18.30;85.30;;;;;;5050985;28;20127;-76
2022/09/14 05:58:41;;;;;;;3.08;2.80;;;18.20;85.20;;;;;;5048141;28;20157;-76
2022/09/14 06:01:14;;;;;;;3.53;3.03;;;18.20;85.20;;;;;;5048616;28;20108;-75
2022/09/14 06:03:40;;;;;;;3.00;2.70;;;18.30;85.30;;;;;;5054563;28;20041;-75
2022/09/14 06:06:06;;;;;;;3.83;3.10;;;18.20;85.20;;;;;;5035240;28;20047;-74
2022/09/14 06:08:32;;;;;;;4.50;3.00;;;18.30;85.30;;;;;;5019059;28;20036;-75
2022/09/14 06:11:07;;;;;;;2.85;2.65;;;18.20;85.30;;;;;;5068324;28;20047;-74
2022/09/14 06:13:33;;;;;;;4.65;2.72;;;18.30;85.40;;;;;;5035581;28;20097;-74
2022/09/14 06:16:07;;;;;;;3.22;2.92;;;18.20;86.10;;;;;;5050986;28;20040;-77
2022/09/14 06:18:34;;;;;;;5.05;3.60;;;18.20;85.40;;;;;;5050834;28;20085;-76
2022/09/14 06:20:59;;;;;;;4.95;4.15;;;18.30;85.30;;;;;;5050096;28;20061;-76
2022/09/14 06:23:29;;;;;;;4.82;4.25;;;18.30;85.50;;;;;;5036739;28;20686;-76
2022/09/14 06:25:55;;;;;;;4.05;3.50;;;18.30;85.50;;;;;;5021958;28;20040;-76
2022/09/14 06:28:21;;;;;;;3.92;3.53;;;18.30;85.50;;;;;;5050413;28;20045;-76
2022/09/14 06:30:47;;;;;;;3.50;3.20;;;18.20;85.50;;;;;;5048430;28;20036;-78
2022/09/14 06:33:12;;;;;;;6.97;3.70;;;18.30;85.60;;;;;;5066139;28;20105;-77
2022/09/14 06:35:38;;;;;;;4.05;3.22;;;18.30;85.60;;;;;;5049015;28;20033;-76
2022/09/14 06:38:03;;;;;;;4.60;3.58;;;18.30;85.60;;;;;;5047299;28;20043;-75
2022/09/14 06:40:29;;;;;;;5.25;3.63;;;18.30;85.60;;;;;;5055593;28;20046;-76
2022/09/14 06:42:56;;;;;;;4.55;3.42;;;18.30;85.70;;;;;;5068435;28;20048;-77
2022/09/14 06:45:21;;;;;;;4.15;3.00;;;18.20;85.70;;;;;;5053903;28;20085;-77
2022/09/14 06:47:47;;;;;;;7.82;3.15;;;18.30;85.70;;;;;;5019730;28;20041;-77
2022/09/14 06:50:12;;;;;;;2.95;2.70;;;18.30;85.70;;;;;;5033536;28;20044;-76
2022/09/14 06:52:39;;;;;;;3.33;2.88;;;18.30;85.70;;;;;;5051832;28;20029;-76
2022/09/14 06:55:05;;;;;;;3.63;3.10;;;18.30;85.70;;;;;;5065322;28;20050;-76
2022/09/14 06:57:30;;;;;;;4.75;3.05;;;18.30;85.70;;;;;;5052489;28;20045;-76
2022/09/14 06:59:56;;;;;;;3.92;3.00;;;18.30;85.90;;;;;;5068158;28;20086;-78
2022/09/14 07:02:21;;;;;;;3.15;2.13;;;18.30;85.90;;;;;;5046019;28;20028;-76
2022/09/14 07:04:47;;;;;;;2.55;2.35;;;18.30;86.00;;;;;;5051240;28;20067;-75
2022/09/14 07:07:14;;;;;;;3.58;2.22;;;18.30;85.80;;;;;;5041370;28;20029;-77
2022/09/14 07:09:40;;;;;;;2.67;2.47;;;18.30;85.80;;;;;;5025535;28;20063;-77
2022/09/14 07:12:05;;;;;;;4.43;3.03;;;18.30;85.80;;;;;;5038414;28;20433;-78
2022/09/14 07:14:31;;;;;;;3.28;2.78;;;18.30;86.60;;;;;;5037875;28;20080;-76
2022/09/14 07:16:56;;;;;;;4.03;3.30;;;18.30;85.80;;;;;;5042007;28;20131;-77
2022/09/14 07:19:22;;;;;;;4.97;3.00;;;18.30;85.80;;;;;;5053821;28;20051;-77
2022/09/14 07:21:48;;;;;;;3.50;2.80;;;18.30;85.80;;;;;;5056368;28;20488;-76
2022/09/14 07:24:14;;;;;;;3.05;2.67;;;18.40;85.90;;;;;;5072976;28;20041;-75
2022/09/14 07:26:41;;;;;;;6.25;3.50;;;18.40;85.90;;;;;;5052457;28;21021;-77
2022/09/14 07:29:09;;;;;;;2.60;2.22;;;18.40;85.90;;;;;;5039276;28;20032;-76
2022/09/14 07:31:36;;;;;;;3.42;2.53;;;18.40;85.80;;;;;;5038871;28;20558;-76
2022/09/14 07:34:02;;;;;;;3.92;2.60;;;18.40;85.70;;;;;;5055476;28;20039;-77
2022/09/14 07:36:29;;;;;;;3.63;2.40;;;18.40;85.70;;;;;;5037726;28;20048;-76
2022/09/14 07:38:55;;;;;;;4.57;2.75;;;18.40;85.70;;;;;;5051383;28;20121;-76
2022/09/14 07:41:22;;;;;;;6.57;2.58;;;18.40;85.60;;;;;;5055232;28;20040;-75
2022/09/14 07:43:52;;;;;;;3.58;2.80;;;18.40;85.60;;;;;;5071400;28;20142;-76
2022/09/14 07:46:18;;;;;;;3.08;2.65;;;18.40;85.60;;;;;;5037316;28;20039;-76
2022/09/14 07:48:44;;;;;;;3.08;2.30;;;18.40;85.50;;;;;;5054084;28;20036;-77
2022/09/14 07:51:09;;;;;;;2.85;2.35;;;18.50;85.60;;;;;;5052550;28;20086;-78
2022/09/14 07:53:37;;;;;;;6.95;2.50;;;18.50;85.50;;;;;;5041151;28;20063;-76
2022/09/14 07:56:03;;;;;;;2.58;2.38;;;18.50;85.40;;;;;;5034835;28;20037;-76
2022/09/14 07:58:29;;;;;;;3.00;2.63;;;18.50;85.40;;;;;;5026496;28;20040;-76
2022/09/14 08:01:16;;;;;;;4.13;2.92;;;18.50;85.30;;;;;;5035070;28;20595;-75
2022/09/14 08:03:42;;;;;;;3.70;3.13;;;18.50;85.50;;;;;;5067938;28;20092;-77
2022/09/14 08:06:13;;;;;;;3.83;3.08;;;18.60;85.30;;;;;;5037048;28;20036;-75
2022/09/14 08:08:41;;;;;;;4.03;2.75;;;18.60;85.30;;;;;;5051378;28;20721;-76
2022/09/14 08:11:09;;;;;;;3.92;2.92;;;18.60;85.40;;;;;;5038192;28;20028;-76
2022/09/14 08:13:36;;;;;;;4.55;2.45;;;18.60;85.30;;;;;;5037445;28;20124;-76
2022/09/14 08:16:02;;;;;;;5.28;3.10;;;18.60;85.30;;;;;;5021895;28;20028;-76
2022/09/14 08:18:28;;;;;;;3.85;2.90;;;18.60;85.30;;;;;;5036447;28;20028;-77
2022/09/14 08:20:54;;;;;;;3.58;2.40;;;18.60;85.50;;;;;;5052639;28;20040;-77
2022/09/14 08:23:19;;;;;;;4.30;2.38;;;18.70;85.50;;;;;;5051157;28;20732;-76
2022/09/14 08:25:45;;;;;;;3.67;2.92;;;18.70;85.50;;;;;;5040689;28;20039;-77
2022/09/14 08:28:10;;;;;;;2.97;2.50;;;18.70;85.40;;;;;;5066028;28;20042;-78
2022/09/14 08:30:36;;;;;;;3.00;2.72;;;18.80;85.50;;;;;;5043220;28;20028;-77
2022/09/14 08:33:02;;;;;;;2.58;2.30;;;18.80;85.50;;;;;;5050659;28;20046;-77
2022/09/14 08:35:27;;;;;;;3.20;2.20;;;18.80;85.50;;;;;;5049561;28;20047;-77
2022/09/14 08:37:53;;;;;;;3.33;2.60;;;18.80;85.40;;;;;;5023102;28;20691;-76
2022/09/14 08:40:18;;;;;;;3.97;2.20;;;18.90;85.40;;;;;;5063863;28;20701;-77
2022/09/14 08:42:44;;;;;;;4.53;2.20;;;18.90;85.60;;;;;;5037261;28;20056;-77
2022/09/14 08:45:10;;;;;;;8.43;2.55;;;18.90;85.50;;;;;;5032576;28;20468;-77
2022/09/14 08:47:37;;;;;;;5.90;2.67;;;19.00;85.50;;;;;;5034588;28;20029;-77
2022/09/14 08:50:12;;;;;;;4.15;2.45;;;19.00;85.50;;;;;;5052075;28;20028;-76
2022/09/14 08:52:42;;;;;;;4.25;2.47;;;19.00;85.60;;;;;;5046334;28;20139;-76
2022/09/14 08:55:16;;;;;;;2.90;2.47;;;19.10;85.60;;;;;;5037044;28;20190;-77
2022/09/14 08:57:44;;;;;;;4.18;2.35;;;19.10;85.70;;;;;;5068106;28;20055;-78
2022/09/14 09:00:19;;;;;;;2.35;2.15;;;19.20;85.60;;;;;;5036283;28;20041;-77
2022/09/14 09:03:12;;;;;;;3.63;2.28;;;19.30;85.70;;;;;;5085355;28;20057;-76
2022/09/14 09:06:12;;;;;;;2.78;2.40;;;19.30;86.00;;;;;;5038715;28;20479;-77
2022/09/14 09:08:48;;;;;;;3.88;2.30;;;19.40;86.00;;;;;;5059530;28;20728;-76
2022/09/14 09:11:17;;;;;;;3.85;2.50;;;19.40;85.50;;;;;;5053349;28;20120;-77
2022/09/14 09:13:44;;;;;;;4.32;2.63;;;19.50;85.40;;;;;;5046750;28;20036;-79
2022/09/14 09:16:09;;;;;;;3.38;2.15;;;19.50;85.30;;;;;;5048724;28;20394;-77
2022/09/14 09:18:46;;;;;;;2.92;2.60;;;19.50;85.30;;;;;;5035943;28;20120;-78
2022/09/14 09:21:22;;;;;;;3.20;2.90;;;19.50;85.20;;;;;;5051324;28;20477;-80
2022/09/14 09:23:48;;;;;;;4.47;2.25;;;19.60;85.20;;;;;;5019131;28;20063;-78
2022/09/14 09:26:29;;;;;;;4.65;2.67;;;19.60;85.10;;;;;;5053443;28;20064;-78
2022/09/14 09:29:00;;;;;;;3.28;2.85;;;19.70;85.10;;;;;;5065517;28;20040;-79
2022/09/14 09:31:52;;;;;;;4.65;2.50;;;19.70;84.90;;;;;;5053271;28;20047;-79
2022/09/14 09:34:38;;;;;;;4.47;2.20;;;19.70;85.10;;;;;;5041178;28;20032;-78
2022/09/14 09:37:03;;;;;;;2.50;1.85;;;19.80;84.80;;;;;;5050813;28;20119;-77
2022/09/14 09:39:29;;;;;;;6.20;2.38;;;19.90;84.80;;;;;;5023394;28;20029;-77
2022/09/14 09:42:00;;;;;;;7.53;2.35;;;19.90;84.70;;;;;;5051900;28;20167;-77
2022/09/14 09:44:25;;;;;;;2.47;1.98;;;19.90;84.70;;;;;;5049640;28;20762;-77
2022/09/14 09:46:58;;;;;;;2.35;2.15;;;20.10;84.80;;;;;;5051085;28;20044;-78
2022/09/14 09:49:38;;;;;;;2.17;1.98;;;20.10;85.50;;;;;;5040454;28;20340;-76
2022/09/14 09:52:11;;;;;;;3.60;2.53;;;20.20;84.50;;;;;;5023304;28;20052;-78
2022/09/14 09:54:38;;;;;;;5.07;2.80;;;20.20;84.50;;;;;;5020997;28;20111;-76
2022/09/14 09:57:05;;;;;;;4.22;3.22;;;20.30;84.40;;;;;;5033666;28;20044;-76
2022/09/14 09:59:36;;;;;;;4.05;2.72;;;20.30;84.20;;;;;;5030589;28;20053;-77
2022/09/14 10:02:22;;;;;;;4.07;2.85;;;20.30;84.90;;;;;;5031026;28;20041;-77
2022/09/14 10:05:01;;;;;;;4.60;2.10;;;20.40;84.30;;;;;;5037193;28;20025;-77
2022/09/14 10:07:28;;;;;;;2.38;2.17;;;20.40;84.00;;;;;;5026785;28;20041;-78
2022/09/14 10:10:05;;;;;;;3.85;2.13;;;20.40;83.80;;;;;;5036095;28;20498;-77
2022/09/14 10:12:31;;;;;;;1.65;1.55;;;20.40;84.00;;;;;;5022044;28;20846;-76
2022/09/14 10:15:05;;;;;;;2.05;1.85;;;20.40;83.80;;;;;;5037916;28;20100;-77
2022/09/14 10:17:31;;;;;;;1.90;1.80;;;20.40;83.80;;;;;;5034764;28;20045;-77
2022/09/14 10:19:57;;;;;;;2.03;1.83;;;20.40;83.80;;;;;;5036445;28;20026;-77
2022/09/14 10:22:27;;;;;;;2.58;1.90;;;20.40;83.70;;;;;;5034176;28;20041;-76
2022/09/14 10:25:19;;;;;;;2.10;1.60;;;20.40;83.70;;;;;;5037608;28;20038;-77
2022/09/14 10:27:54;;;;;;;2.65;1.60;;;20.50;83.80;;;;;;5038242;28;20033;-77
2022/09/14 10:30:24;;;;;;;3.45;1.90;;;20.50;83.50;;;;;;5039958;28;20072;-78
2022/09/14 10:32:58;;;;;;;4.25;2.00;;;20.50;83.40;;;;;;5016708;28;20041;-77
2022/09/14 10:35:27;;;;;;;2.33;2.13;;;20.60;83.50;;;;;;5032618;28;20116;-76
2022/09/14 10:38:02;;;;;;;4.45;2.10;;;20.60;83.40;;;;;;5041443;28;20033;-77
2022/09/14 10:40:47;;;;;;;3.92;1.85;;;20.70;83.40;;;;;;5037419;28;20064;-77
2022/09/14 10:43:15;;;;;;;2.67;1.90;;;20.70;83.40;;;;;;5032710;28;20506;-78
2022/09/14 10:45:51;;;;;;;2.67;2.33;;;20.80;83.30;;;;;;5022893;28;20044;-76
2022/09/14 10:48:39;;;;;;;2.67;1.63;;;20.90;83.20;;;;;;5038715;28;20072;-76
2022/09/14 10:51:33;;;;;;;2.13;1.88;;;21.00;83.20;;;;;;5026237;28;20029;-77
2022/09/14 10:54:42;;;;;;;2.33;2.13;;;21.10;82.90;;;;;;5035381;28;20037;-77
2022/09/14 10:57:33;;;;;;;2.78;1.80;;;21.20;82.80;;;;;;5034359;28;20067;-77
2022/09/14 11:00:13;;;;;;;2.42;1.70;;;21.30;82.50;;;;;;5029476;28;20090;-77
2022/09/14 11:02:45;;;;;;;2.75;1.60;;;21.30;82.30;;;;;;5009000;28;20041;-77
2022/09/14 11:05:26;;;;;;;3.60;1.50;;;21.40;82.10;;;;;;5020230;28;20034;-76
2022/09/14 11:08:01;;;;;;;1.98;1.80;;;21.40;82.00;;;;;;5000192;28;20042;-76
2022/09/14 11:10:50;;;;;;;2.05;1.58;;;21.50;81.90;;;;;;5024925;28;20055;-77
2022/09/14 11:13:34;;;;;;;1.98;1.75;;;21.50;81.80;;;;;;5019106;28;20037;-77
2022/09/14 11:16:38;;;;;;;1.85;1.30;;;21.60;81.70;;;;;;5020833;28;20042;-77
2022/09/14 11:19:14;;;;;;;1.60;1.50;;;21.70;81.60;;;;;;5023185;28;20049;-77
2022/09/14 11:21:49;;;;;;;1.63;1.52;;;21.70;81.30;;;;;;5021730;28;20042;-80
2022/09/14 11:24:25;;;;;;;1.90;1.35;;;21.70;81.20;;;;;;5024700;28;20542;-77
2022/09/14 11:27:14;;;;;;;1.80;1.70;;;21.80;81.00;;;;;;5026499;28;20064;-77
2022/09/14 11:29:52;;;;;;;1.50;1.40;;;21.90;80.90;;;;;;5011570;28;20102;-78
2022/09/14 11:32:27;;;;;;;2.10;1.90;;;21.90;80.70;;;;;;4999934;28;20029;-77
2022/09/14 11:35:02;;;;;;;2.00;1.80;;;22.00;80.50;;;;;;5024301;28;20038;-78
2022/09/14 11:37:38;;;;;;;2.25;1.88;;;22.10;80.50;;;;;;5024995;28;20534;-78
2022/09/14 11:40:09;;;;;;;2.03;1.60;;;22.20;80.40;;;;;;5024350;28;20048;-78
2022/09/14 11:42:54;;;;;;;1.77;1.67;;;22.30;80.20;;;;;;5010981;28;20101;-77
2022/09/14 11:45:26;;;;;;;2.00;1.75;;;22.40;79.90;;;;;;5016134;28;20042;-77
2022/09/14 11:48:19;;;;;;;2.30;2.10;;;22.50;79.60;;;;;;5019440;28;20067;-77
2022/09/14 11:50:44;;;;;;;3.30;2.30;;;22.50;79.30;;;;;;5008251;28;20656;-78
2022/09/14 11:53:14;;;;;;;2.35;2.15;;;22.60;79.20;;;;;;5009383;28;20065;-77
2022/09/14 11:55:44;;;;;;;2.30;2.10;;;22.60;78.90;;;;;;4997196;28;20034;-78
2022/09/14 11:58:20;;;;;;;2.30;2.10;;;22.60;78.70;;;;;;5020840;28;20040;-77
2022/09/14 12:00:51;;;;;;;3.25;2.30;;;22.70;78.40;;;;;;5024365;28;20037;-77
2022/09/14 12:03:21;;;;;;;2.40;2.20;;;22.70;78.40;;;;;;5024860;28;20030;-78
2022/09/14 12:05:47;;;;;;;4.03;2.28;;;22.70;78.30;;;;;;5019708;28;20477;-77
2022/09/14 12:08:33;;;;;;;2.28;2.08;;;22.80;78.20;;;;;;5008851;28;20580;-78
2022/09/14 12:10:59;;;;;;;2.95;2.20;;;22.80;78.20;;;;;;5024279;28;20041;-80
2022/09/14 12:13:24;;;;;;;4.05;3.08;;;22.80;78.00;;;;;;5015786;28;20667;-79
2022/09/14 12:16:03;;;;;;;3.88;2.67;;;22.90;77.90;;;;;;5015195;28;20056;-79
2022/09/14 12:18:28;;;;;;;2.55;2.35;;;22.90;77.60;;;;;;5017483;28;20139;-79
2022/09/14 12:21:17;;;;;;;4.38;2.55;;;22.90;77.50;;;;;;5017947;28;20030;-80
2022/09/14 12:23:44;;;;;;;2.90;2.70;;;22.90;77.40;;;;;;5004250;28;20119;-77
2022/09/14 12:26:09;;;;;;;4.75;3.55;;;22.90;77.40;;;;;;5007897;28;20561;-79
2022/09/14 12:28:38;;;;;;;4.22;3.60;;;22.90;77.30;;;;;;5011758;28;20048;-78
2022/09/14 12:31:05;;;;;;;3.90;3.10;;;22.90;77.20;;;;;;5010883;28;20075;-78
2022/09/14 12:36:00;;;;;;;3.92;3.10;;;22.80;77.20;;;;;;5021602;28;20029;-79
2022/09/14 12:38:28;;;;;;;5.43;3.58;;;22.80;77.10;;;;;;5012191;28;20113;-78
2022/09/14 12:41:00;;;;;;;6.60;3.70;;;22.80;77.10;;;;;;5014700;28;20026;-77
2022/09/14 12:43:34;;;;;;;;;;;22.80;77.10;;;;;;5003017;28;20040;-78
2022/09/14 12:46:04;;;;;;;3.92;3.38;;;22.80;77.10;;;;;;5018206;28;20297;-78
2022/09/14 12:48:45;;;;;;;3.43;3.13;;;22.80;77.10;;;;;;5000761;28;20057;-78
2022/09/14 12:51:26;;;;;;;4.10;3.53;;;22.70;77.00;;;;;;5014065;28;20034;-78
2022/09/14 12:54:07;;;;;;;3.90;3.42;;;22.70;77.00;;;;;;5016595;28;20091;-79
2022/09/14 12:57:06;;;;;;;4.03;3.63;;;22.70;77.00;;;;;;4998513;28;20095;-78
2022/09/14 12:59:38;;;;;;;3.95;3.58;;;22.80;77.00;;;;;;5017186;28;20045;-77
2022/09/14 13:02:34;;;;;;;3.58;3.25;;;22.80;77.00;;;;;;5019316;28;20125;-78
2022/09/14 13:04:59;;;;;;;3.80;3.35;;;22.80;76.90;;;;;;5023218;28;20064;-79
2022/09/14 13:07:31;;;;;;;3.10;2.80;;;22.90;77.00;;;;;;5011856;28;20030;-78